createdAt,value
2022-10-22T00:00:43.700Z,1.08
2022-10-22T00:02:45.403Z,1.25
2022-10-22T00:04:48.185Z,1.40
2022-10-22T00:06:49.789Z,0.60
2022-10-22T00:08:51.818Z,0.70
2022-10-22T00:10:53.433Z,0.80
2022-10-22T00:12:55.129Z,0.88
2022-10-22T00:14:57.249Z,1.20
2022-10-22T00:17:00.937Z,2.08
2022-10-22T00:19:02.816Z,3.30
2022-10-22T00:21:05.528Z,1.42
2022-10-22T00:23:07.124Z,1.88
2022-10-22T00:25:09.003Z,0.70
2022-10-22T00:27:12.676Z,0.65
2022-10-22T00:29:14.331Z,0.68
2022-10-22T00:31:15.969Z,0.63
2022-10-22T00:33:17.535Z,1.13
2022-10-22T00:35:19.207Z,0.50
2022-10-22T00:37:20.852Z,0.75
2022-10-22T00:39:24.360Z,1.88
2022-10-22T00:41:25.951Z,1.52
2022-10-22T00:43:27.694Z,0.65
2022-10-22T00:45:29.561Z,0.77
2022-10-22T00:47:42.706Z,0.98
2022-10-22T00:49:45.301Z,1.15
2022-10-22T00:51:46.886Z,1.55
2022-10-22T00:53:53.415Z,0.80
2022-10-22T00:55:55.702Z,2.30
2022-10-22T00:57:59.470Z,0.55
2022-10-22T01:00:01.511Z,1.30
2022-10-22T01:02:03.460Z,1.25
2022-10-22T01:04:05.150Z,0.50
2022-10-22T01:06:07.472Z,0.55
2022-10-22T01:08:17.273Z,2.03
2022-10-22T01:10:48.602Z,0.60
2022-10-22T01:15:35.198Z,1.05
2022-10-22T01:17:55.615Z,2.75
2022-10-22T01:20:18.003Z,1.03
2022-10-22T01:22:43.093Z,1.05
2022-10-22T01:24:58.301Z,0.93
2022-10-22T01:27:28.597Z,0.60
2022-10-22T01:29:49.811Z,1.30
2022-10-22T01:34:00.288Z,0.65
2022-10-22T01:36:04.135Z,2.10
2022-10-22T01:38:11.205Z,2.10
2022-10-22T01:40:15.932Z,0.55
2022-10-22T01:42:17.566Z,0.60
2022-10-22T01:44:33.446Z,0.60
2022-10-22T01:46:36.521Z,1.65
2022-10-22T01:48:59.371Z,1.13
2022-10-22T01:51:00.925Z,0.77
2022-10-22T01:53:37.383Z,0.40
2022-10-22T01:55:57.699Z,0.60
2022-10-22T01:58:14.168Z,0.95
2022-10-22T02:00:18.579Z,0.77
2022-10-22T02:02:32.482Z,0.95
2022-10-22T02:04:49.390Z,0.68
2022-10-22T02:06:53.988Z,0.50
2022-10-22T02:08:57.304Z,0.50
2022-10-22T02:11:00.839Z,0.47
2022-10-22T02:13:04.223Z,0.50
2022-10-22T02:15:07.596Z,2.55
2022-10-22T02:17:15.218Z,0.70
2022-10-22T02:19:44.273Z,0.50
2022-10-22T02:21:46.140Z,0.82
2022-10-22T02:23:49.164Z,0.70
2022-10-22T02:26:09.404Z,1.40
2022-10-22T02:28:26.559Z,0.50
2022-10-22T02:30:28.278Z,0.65
2022-10-22T02:32:35.947Z,0.65
2022-10-22T02:34:37.873Z,0.50
2022-10-22T02:36:45.445Z,0.52
2022-10-22T02:38:52.054Z,0.53
2022-10-22T02:40:53.800Z,0.43
2022-10-22T02:42:55.459Z,0.82
2022-10-22T02:44:57.069Z,0.70
2022-10-22T02:46:59.664Z,0.52
2022-10-22T02:49:01.283Z,0.50
2022-10-22T02:51:03.292Z,0.50
2022-10-22T02:53:04.880Z,0.52
2022-10-22T02:55:07.290Z,0.50
2022-10-22T02:57:08.984Z,0.43
2022-10-22T02:59:10.642Z,0.40
2022-10-22T03:01:15.280Z,0.43
2022-10-22T03:03:17.952Z,0.40
2022-10-22T03:05:19.531Z,0.55
2022-10-22T03:07:21.252Z,0.47
2022-10-22T03:09:24.863Z,0.50
2022-10-22T03:11:26.759Z,0.60
2022-10-22T03:13:28.731Z,0.50
2022-10-22T03:15:30.322Z,0.77
2022-10-22T03:17:31.926Z,0.60
2022-10-22T03:19:33.665Z,0.85
2022-10-22T03:21:43.624Z,0.70
2022-10-22T03:23:45.415Z,1.13
2022-10-22T03:25:49.338Z,0.60
2022-10-22T03:27:53.612Z,0.45
2022-10-22T03:29:56.370Z,0.50
2022-10-22T03:31:57.955Z,0.90
2022-10-22T03:33:59.555Z,1.48
2022-10-22T03:36:01.574Z,1.35
2022-10-22T03:38:03.277Z,0.52
2022-10-22T03:40:07.099Z,0.43
2022-10-22T03:42:09.073Z,0.50
2022-10-22T03:44:11.287Z,0.40
2022-10-22T03:46:12.876Z,0.98
2022-10-22T03:48:14.501Z,0.60
2022-10-22T03:50:17.168Z,0.50
2022-10-22T03:52:19.005Z,0.63
2022-10-22T03:54:20.637Z,0.40
2022-10-22T03:56:22.897Z,0.65
2022-10-22T03:58:24.508Z,9.77
2022-10-22T04:00:26.100Z,16.95
2022-10-22T04:02:27.799Z,1.65
2022-10-22T04:04:29.515Z,2.40
2022-10-22T04:06:31.285Z,1.92
2022-10-22T04:08:33.372Z,1.38
2022-10-22T04:10:35.467Z,2.70
2022-10-22T04:12:37.143Z,1.52
2022-10-22T04:14:38.763Z,2.33
2022-10-22T04:16:41.090Z,0.82
2022-10-22T04:18:44.512Z,5.07
2022-10-22T04:20:46.491Z,2.38
2022-10-22T04:22:48.096Z,2.88
2022-10-22T04:26:56.500Z,4.45
2022-10-22T04:28:58.126Z,2.38
2022-10-22T04:30:59.863Z,2.28
2022-10-22T04:33:01.765Z,7.90
2022-10-22T04:35:03.602Z,3.70
2022-10-22T04:37:05.195Z,8.63
2022-10-22T04:39:06.930Z,4.20
2022-10-22T04:41:20.576Z,4.35
2022-10-22T04:43:22.151Z,0.70
2022-10-22T04:45:23.756Z,3.28
2022-10-22T04:47:25.337Z,9.35
2022-10-22T04:49:27.131Z,19.77
2022-10-22T04:51:28.825Z,7.82
2022-10-22T04:53:30.435Z,10.07
2022-10-22T04:55:32.038Z,2.58
2022-10-22T04:57:33.662Z,5.50
2022-10-22T04:59:35.370Z,5.25
2022-10-22T05:01:42.761Z,16.17
2022-10-22T05:03:45.560Z,4.25
2022-10-22T05:05:47.127Z,6.45
2022-10-22T05:07:51.277Z,6.85
2022-10-22T05:09:53.849Z,16.13
2022-10-22T05:11:55.431Z,13.07
2022-10-22T05:13:59.055Z,6.88
2022-10-22T05:16:02.044Z,7.68
2022-10-22T05:18:03.767Z,1.42
2022-10-22T05:20:06.255Z,2.28
2022-10-22T05:22:07.874Z,4.72
2022-10-22T05:24:09.483Z,8.15
2022-10-22T05:26:12.503Z,7.10
2022-10-22T05:28:14.096Z,3.92
2022-10-22T05:30:15.961Z,2.35
2022-10-22T05:32:18.032Z,9.75
2022-10-22T05:34:20.210Z,1.10
2022-10-22T05:36:22.763Z,1.33
2022-10-22T05:38:25.213Z,1.50
2022-10-22T05:40:30.902Z,2.45
2022-10-22T05:42:33.302Z,0.77
2022-10-22T05:44:35.071Z,3.38
2022-10-22T05:46:36.753Z,2.60
2022-10-22T05:48:38.979Z,5.55
2022-10-22T05:50:40.631Z,3.72
2022-10-22T05:52:42.669Z,1.33
2022-10-22T05:54:44.440Z,1.98
2022-10-22T05:56:46.501Z,5.70
2022-10-22T05:58:48.741Z,3.42
2022-10-22T06:00:50.411Z,5.80
2022-10-22T06:02:52.074Z,5.15
2022-10-22T06:04:53.669Z,2.22
2022-10-22T06:06:55.491Z,1.88
2022-10-22T06:09:20.208Z,6.28
2022-10-22T06:11:23.368Z,3.03
2022-10-22T06:13:24.999Z,3.33
2022-10-22T06:15:26.592Z,3.63
2022-10-22T06:17:29.357Z,2.22
2022-10-22T06:19:31.277Z,4.00
2022-10-22T06:21:33.133Z,8.02
2022-10-22T06:23:35.272Z,3.15
2022-10-22T06:25:36.944Z,1.90
2022-10-22T06:27:38.536Z,5.32
2022-10-22T06:29:40.142Z,18.88
2022-10-22T06:31:41.778Z,4.80
2022-10-22T06:33:43.434Z,8.98
2022-10-22T06:35:45.251Z,8.48
2022-10-22T06:37:47.480Z,4.70
2022-10-22T06:39:49.060Z,8.75
2022-10-22T06:41:50.670Z,11.63
2022-10-22T06:43:53.951Z,5.00
2022-10-22T06:46:00.638Z,9.88
2022-10-22T06:48:02.230Z,5.40
2022-10-22T06:50:04.116Z,4.07
2022-10-22T06:52:05.800Z,9.52
2022-10-22T06:54:07.945Z,8.05
2022-10-22T06:56:12.016Z,7.25
2022-10-22T06:58:13.609Z,5.68
2022-10-22T07:00:15.392Z,7.70
2022-10-22T07:02:16.963Z,7.32
2022-10-22T07:04:18.551Z,6.47
2022-10-22T07:06:21.701Z,5.82
2022-10-22T07:08:23.301Z,6.70
2022-10-22T07:10:27.254Z,10.25
2022-10-22T07:12:33.869Z,19.38
2022-10-22T07:14:35.460Z,18.58
2022-10-22T07:16:37.968Z,11.30
2022-10-22T07:18:40.435Z,10.38
2022-10-22T07:20:42.029Z,10.75
2022-10-22T07:22:43.788Z,10.05
2022-10-22T07:24:45.528Z,13.45
2022-10-22T07:26:47.173Z,8.60
2022-10-22T07:28:49.242Z,6.28
2022-10-22T07:30:51.141Z,12.68
2022-10-22T07:32:52.735Z,8.02
2022-10-22T07:34:54.373Z,8.90
2022-10-22T07:36:57.146Z,13.57
2022-10-22T07:39:00.357Z,10.40
2022-10-22T07:41:02.949Z,7.22
2022-10-22T07:43:04.875Z,12.65
2022-10-22T07:45:07.139Z,9.02
2022-10-22T07:47:08.713Z,12.50
2022-10-22T07:49:10.360Z,9.60
2022-10-22T07:51:12.131Z,11.88
2022-10-22T07:53:13.724Z,8.60
2022-10-22T07:55:15.358Z,13.45
2022-10-22T07:57:16.973Z,9.15
2022-10-22T07:59:18.720Z,8.38
2022-10-22T08:01:20.365Z,22.17
2022-10-22T08:03:22.131Z,8.02
2022-10-22T08:05:23.879Z,8.68
2022-10-22T08:09:28.255Z,9.95
2022-10-22T08:11:29.865Z,12.00
2022-10-22T08:13:31.685Z,13.77
2022-10-22T08:15:33.501Z,11.50
2022-10-22T08:17:35.259Z,10.20
2022-10-22T08:19:36.873Z,13.68
2022-10-22T08:21:38.468Z,6.95
2022-10-22T08:23:40.129Z,10.95
2022-10-22T08:25:41.783Z,16.20
2022-10-22T08:27:43.673Z,11.93
2022-10-22T08:29:45.411Z,13.45
2022-10-22T08:31:47.029Z,4.35
2022-10-22T08:33:49.183Z,8.63
2022-10-22T08:35:52.550Z,11.48
2022-10-22T08:37:54.153Z,16.35
2022-10-22T08:39:55.754Z,3.88
2022-10-22T08:42:29.144Z,5.20
2022-10-22T08:44:30.712Z,4.15
2022-10-22T08:46:52.495Z,7.95
2022-10-22T08:48:56.900Z,8.27
2022-10-22T08:50:58.748Z,10.40
2022-10-22T08:53:05.133Z,12.52
2022-10-22T08:55:14.195Z,22.63
2022-10-22T08:57:36.657Z,33.15
2022-10-22T08:59:55.620Z,23.52
2022-10-22T09:01:57.478Z,10.93
2022-10-22T09:04:13.621Z,28.33
2022-10-22T09:06:18.637Z,33.55
2022-10-22T09:08:20.807Z,14.82
2022-10-22T09:10:27.126Z,14.85
2022-10-22T09:12:29.098Z,21.60
2022-10-22T09:14:30.915Z,53.45
2022-10-22T09:16:57.143Z,14.95
2022-10-22T09:19:35.748Z,15.68
2022-10-22T09:22:28.329Z,10.15
2022-10-22T09:24:44.635Z,21.02
2022-10-22T09:26:46.223Z,11.32
2022-10-22T09:28:51.956Z,9.13
2022-10-22T09:30:53.683Z,10.32
2022-10-22T09:33:06.565Z,10.65
2022-10-22T09:35:11.736Z,16.23
2022-10-22T09:37:18.520Z,10.07
2022-10-22T09:39:26.570Z,12.30
2022-10-22T09:41:30.071Z,10.35
2022-10-22T09:43:32.862Z,23.55
2022-10-22T09:45:34.516Z,10.93
2022-10-22T09:47:43.539Z,15.52
2022-10-22T09:50:18.271Z,9.50
2022-10-22T09:52:28.583Z,10.73
2022-10-22T09:54:52.943Z,18.83
2022-10-22T09:56:58.322Z,10.32
2022-10-22T09:58:59.902Z,6.68
2022-10-22T10:01:01.573Z,9.65
2022-10-22T10:03:03.364Z,9.82
2022-10-22T10:05:06.346Z,14.38
2022-10-22T10:07:30.621Z,12.98
2022-10-22T10:09:34.824Z,16.60
2022-10-22T10:11:42.628Z,6.85
2022-10-22T10:13:59.267Z,7.78
2022-10-22T10:16:24.967Z,9.75
2022-10-22T10:18:29.416Z,9.70
2022-10-22T10:20:40.828Z,21.30
2022-10-22T10:22:48.540Z,18.90
2022-10-22T10:24:50.114Z,17.02
2022-10-22T10:26:58.516Z,9.32
2022-10-22T10:29:12.055Z,14.02
2022-10-22T10:31:22.536Z,15.13
2022-10-22T10:33:29.208Z,16.98
2022-10-22T10:35:42.991Z,14.57
2022-10-22T10:38:15.596Z,14.00
2022-10-22T10:40:22.000Z,9.10
2022-10-22T10:42:41.605Z,8.23
2022-10-22T10:45:12.835Z,13.60
2022-10-22T10:47:36.078Z,16.65
2022-10-22T10:49:37.692Z,6.20
2022-10-22T10:51:45.535Z,9.18
2022-10-22T10:54:05.774Z,9.77
2022-10-22T10:56:29.270Z,8.23
2022-10-22T10:58:54.259Z,6.80
2022-10-22T11:01:02.886Z,6.05
2022-10-22T11:03:22.229Z,3.15
2022-10-22T11:05:55.332Z,4.30
2022-10-22T11:08:03.224Z,7.43
2022-10-22T11:10:18.379Z,11.77
2022-10-22T11:12:36.491Z,4.32
2022-10-22T11:14:56.095Z,6.18
2022-10-22T11:17:12.019Z,4.32
2022-10-22T11:19:23.013Z,6.57
2022-10-22T11:21:55.658Z,7.97
2022-10-22T11:24:15.935Z,9.23
2022-10-22T11:26:45.696Z,4.20
2022-10-22T11:28:53.403Z,4.40
2022-10-22T11:31:02.726Z,9.63
2022-10-22T11:33:09.970Z,16.63
2022-10-22T11:35:17.060Z,3.92
2022-10-22T11:37:19.093Z,2.42
2022-10-22T11:39:35.339Z,5.05
2022-10-22T11:41:37.584Z,6.32
2022-10-22T11:43:52.911Z,5.25
2022-10-22T11:46:17.570Z,3.95
2022-10-22T11:48:19.546Z,10.63
2022-10-22T11:50:48.924Z,3.17
2022-10-22T11:53:03.889Z,7.60
2022-10-22T11:55:32.137Z,12.00
2022-10-22T11:57:39.241Z,5.22
2022-10-22T11:59:49.790Z,3.75
2022-10-22T12:01:55.911Z,3.90
2022-10-22T12:04:39.258Z,4.47
2022-10-22T12:06:56.405Z,5.55
2022-10-22T12:09:01.654Z,6.72
2022-10-22T12:11:10.716Z,4.75
2022-10-22T12:13:20.350Z,5.65
2022-10-22T12:15:27.586Z,6.88
2022-10-22T12:17:30.953Z,5.50
2022-10-22T12:19:37.681Z,4.80
2022-10-22T12:21:42.315Z,3.10
2022-10-22T12:23:44.833Z,8.80
2022-10-22T12:25:46.497Z,3.65
2022-10-22T12:27:53.265Z,7.13
2022-10-22T12:29:57.301Z,4.43
2022-10-22T12:32:04.003Z,5.22
2022-10-22T12:34:05.879Z,3.67
2022-10-22T12:36:14.557Z,2.75
2022-10-22T12:38:22.270Z,3.10
2022-10-22T12:40:26.686Z,3.22
2022-10-22T12:42:28.332Z,3.35
2022-10-22T12:44:33.019Z,3.03
2022-10-22T12:46:35.834Z,4.03
2022-10-22T12:48:40.827Z,2.65
2022-10-22T12:50:44.572Z,3.00
2022-10-22T12:52:47.536Z,1.98
2022-10-22T12:54:55.042Z,3.60
2022-10-22T12:56:58.485Z,2.70
2022-10-22T12:59:20.343Z,6.25
2022-10-22T13:01:22.315Z,3.33
2022-10-22T13:03:28.761Z,2.88
2022-10-22T13:05:39.091Z,3.90
2022-10-22T13:07:49.051Z,3.53
2022-10-22T13:09:56.394Z,2.03
2022-10-22T13:12:04.747Z,0.80
2022-10-22T13:14:20.407Z,1.20
2022-10-22T13:16:25.562Z,1.98
2022-10-22T13:18:33.423Z,1.95
2022-10-22T13:20:37.331Z,1.27
2022-10-22T13:22:40.715Z,1.20
2022-10-22T13:24:50.610Z,2.55
2022-10-22T13:26:54.476Z,1.92
2022-10-22T13:28:57.996Z,1.17
2022-10-22T13:31:02.659Z,2.33
2022-10-22T13:33:22.874Z,2.58
2022-10-22T13:35:27.744Z,2.33
2022-10-22T13:37:32.149Z,2.08
2022-10-22T13:39:35.202Z,2.30
2022-10-22T13:43:47.136Z,2.40
2022-10-22T13:45:54.004Z,1.70
2022-10-22T13:47:56.500Z,1.30
2022-10-22T13:50:04.681Z,2.03
2022-10-22T13:52:06.283Z,1.45
2022-10-22T13:54:18.624Z,0.73
2022-10-22T13:56:21.775Z,1.30
2022-10-22T13:58:24.832Z,0.90
2022-10-22T14:00:27.288Z,1.17
2022-10-22T14:02:28.996Z,1.60
2022-10-22T14:04:30.646Z,3.25
2022-10-22T14:06:33.350Z,1.35
2022-10-22T14:08:35.099Z,1.00
2022-10-22T14:10:36.729Z,2.85
2022-10-22T14:12:38.379Z,1.88
2022-10-22T14:14:40.100Z,0.98
2022-10-22T14:16:41.719Z,1.67
2022-10-22T14:18:43.476Z,2.97
2022-10-22T14:20:45.102Z,0.77
2022-10-22T14:22:47.812Z,4.68
2022-10-22T14:24:50.008Z,13.38
2022-10-22T14:26:51.623Z,6.38
2022-10-22T14:29:10.239Z,1.60
2022-10-22T14:31:12.968Z,5.75
2022-10-22T14:33:14.552Z,8.82
2022-10-22T14:35:19.825Z,5.70
2022-10-22T14:37:23.492Z,7.43
2022-10-22T14:39:25.212Z,14.07
2022-10-22T14:41:28.669Z,3.08
2022-10-22T14:43:33.756Z,3.90
2022-10-22T14:45:35.384Z,6.35
2022-10-22T14:47:36.984Z,3.22
2022-10-22T14:49:38.625Z,6.50
2022-10-22T14:51:40.301Z,2.28
2022-10-22T14:53:42.771Z,7.25
2022-10-22T14:55:48.940Z,2.30
2022-10-22T14:57:50.572Z,1.70
2022-10-22T14:59:54.794Z,5.88
2022-10-22T15:01:56.848Z,6.28
2022-10-22T15:03:58.468Z,2.20
2022-10-22T15:06:00.506Z,3.50
2022-10-22T15:08:02.382Z,2.65
2022-10-22T15:10:05.868Z,7.40
2022-10-22T15:12:07.554Z,5.53
2022-10-22T15:14:09.251Z,7.28
2022-10-22T15:16:12.987Z,11.73
2022-10-22T15:18:14.564Z,12.57
2022-10-22T15:20:16.210Z,14.25
2022-10-22T15:22:19.236Z,12.95
2022-10-22T15:24:20.844Z,12.43
2022-10-22T15:26:22.512Z,10.65
2022-10-22T15:28:25.065Z,7.55
2022-10-22T15:30:26.654Z,10.73
2022-10-22T15:32:29.136Z,10.50
2022-10-22T15:34:33.171Z,8.98
2022-10-22T15:36:34.847Z,7.65
2022-10-22T15:38:36.488Z,9.05
2022-10-22T15:40:38.067Z,4.43
2022-10-22T15:42:39.968Z,9.98
2022-10-22T15:44:42.036Z,3.70
2022-10-22T15:46:44.081Z,6.95
2022-10-22T15:48:46.200Z,4.28
2022-10-22T15:50:47.796Z,8.25
2022-10-22T15:52:49.676Z,15.65
2022-10-22T15:54:51.387Z,5.88
2022-10-22T15:56:53.059Z,10.27
2022-10-22T15:58:57.508Z,5.30
2022-10-22T16:01:13.408Z,9.40
2022-10-22T16:03:15.076Z,9.48
2022-10-22T16:05:16.759Z,6.75
2022-10-22T16:07:21.038Z,7.10
2022-10-22T16:09:27.284Z,7.53
2022-10-22T16:11:29.476Z,10.95
2022-10-22T16:13:31.496Z,7.00
2022-10-22T16:15:34.848Z,8.07
2022-10-22T16:17:36.455Z,8.85
2022-10-22T16:19:38.042Z,6.20
2022-10-22T16:21:40.068Z,4.57
2022-10-22T16:23:43.130Z,3.75
2022-10-22T16:25:45.827Z,8.75
2022-10-22T16:27:51.557Z,7.45
2022-10-22T16:29:53.187Z,8.82
2022-10-22T16:31:54.812Z,9.25
2022-10-22T16:33:57.511Z,11.95
2022-10-22T16:35:59.579Z,7.40
2022-10-22T16:38:01.204Z,9.82
2022-10-22T16:40:05.869Z,7.60
2022-10-22T16:42:09.916Z,8.48
2022-10-22T16:44:13.179Z,6.45
2022-10-22T16:46:20.174Z,13.73
2022-10-22T16:48:21.756Z,14.60
2022-10-22T16:50:23.459Z,16.13
2022-10-22T16:52:25.114Z,32.92
2022-10-22T16:54:26.775Z,14.57
2022-10-22T16:56:28.439Z,14.40
2022-10-22T16:58:30.475Z,15.15
2022-10-22T17:00:32.724Z,18.10
2022-10-22T17:02:37.154Z,11.05
2022-10-22T17:04:38.823Z,16.75
2022-10-22T17:06:40.410Z,11.85
2022-10-22T17:08:42.485Z,10.20
2022-10-22T17:10:44.149Z,12.32
2022-10-22T17:12:47.308Z,12.10
2022-10-22T17:14:49.012Z,8.65
2022-10-22T17:16:53.708Z,19.63
2022-10-22T17:18:55.800Z,28.38
2022-10-22T17:20:58.510Z,43.08
2022-10-22T17:23:00.122Z,18.15
2022-10-22T17:25:13.620Z,8.05
2022-10-22T17:27:15.241Z,15.90
2022-10-22T17:29:18.003Z,5.45
2022-10-22T17:31:24.403Z,11.60
2022-10-22T17:33:26.153Z,14.50
2022-10-22T17:37:29.482Z,10.65
2022-10-22T17:39:31.153Z,13.70
2022-10-22T17:41:34.582Z,9.85
2022-10-22T17:43:36.834Z,8.85
2022-10-22T17:45:38.604Z,4.85
2022-10-22T17:47:40.669Z,8.32
2022-10-22T17:49:42.583Z,7.65
2022-10-22T17:51:44.734Z,8.65
2022-10-22T17:53:46.555Z,7.07
2022-10-22T17:55:48.139Z,4.55
2022-10-22T17:57:49.775Z,7.80
2022-10-22T17:59:51.448Z,6.38
2022-10-22T18:01:56.905Z,5.43
2022-10-22T18:04:03.717Z,5.05
2022-10-22T18:06:07.315Z,4.68
2022-10-22T18:08:08.914Z,7.72
2022-10-22T18:10:10.543Z,4.22
2022-10-22T18:12:13.676Z,4.97
2022-10-22T18:14:17.867Z,2.58
2022-10-22T18:16:20.439Z,4.88
2022-10-22T18:18:23.143Z,6.22
2022-10-22T18:20:25.025Z,7.50
2022-10-22T18:22:26.726Z,6.18
2022-10-22T18:24:28.391Z,5.22
2022-10-22T18:26:30.008Z,4.05
2022-10-22T18:28:31.640Z,6.30
2022-10-22T18:30:33.227Z,5.55
2022-10-22T18:32:34.907Z,4.38
2022-10-22T18:34:37.487Z,4.95
2022-10-22T18:36:40.836Z,4.72
2022-10-22T18:38:42.455Z,3.97
2022-10-22T18:40:48.553Z,4.82
2022-10-22T18:42:50.186Z,3.53
2022-10-22T18:44:51.838Z,4.55
2022-10-22T18:46:53.464Z,1.67
2022-10-22T18:48:56.447Z,4.22
2022-10-22T18:51:03.551Z,2.90
2022-10-22T18:53:05.341Z,2.65
2022-10-22T18:55:07.414Z,8.90
2022-10-22T18:57:09.040Z,3.58
2022-10-22T18:59:20.212Z,2.85
2022-10-22T19:01:24.528Z,4.45
2022-10-22T19:03:26.173Z,2.70
2022-10-22T19:05:27.756Z,5.88
2022-10-22T19:07:29.640Z,2.92
2022-10-22T19:09:31.453Z,4.20
2022-10-22T19:11:33.061Z,3.03
2022-10-22T19:13:34.655Z,1.63
2022-10-22T19:15:36.267Z,4.65
2022-10-22T19:17:37.883Z,2.33
2022-10-22T19:19:39.589Z,3.50
2022-10-22T19:21:41.293Z,3.03
2022-10-22T19:26:10.018Z,3.38
2022-10-22T19:28:11.620Z,2.15
2022-10-22T19:30:13.577Z,3.70
2022-10-22T19:32:16.681Z,4.53
2022-10-22T19:34:18.783Z,2.72
2022-10-22T19:36:20.655Z,3.70
2022-10-22T19:38:23.462Z,2.08
2022-10-22T19:40:26.857Z,2.75
2022-10-22T19:42:29.011Z,2.38
2022-10-22T19:44:31.095Z,6.65
2022-10-22T19:46:32.873Z,3.05
2022-10-22T19:48:35.630Z,4.53
2022-10-22T19:50:37.312Z,7.22
2022-10-22T19:52:39.060Z,1.83
2022-10-22T19:54:44.459Z,3.08
2022-10-22T19:56:47.447Z,4.72
2022-10-22T19:58:49.064Z,4.45
2022-10-22T20:00:50.881Z,7.10
2022-10-22T20:02:52.515Z,4.40
2022-10-22T20:04:54.113Z,3.95
2022-10-22T20:06:56.085Z,3.08
2022-10-22T20:08:58.250Z,3.58
2022-10-22T20:10:59.925Z,2.95
2022-10-22T20:13:01.533Z,2.25
2022-10-22T20:15:03.308Z,3.13
2022-10-22T20:17:04.959Z,3.53
2022-10-22T20:19:08.600Z,2.83
2022-10-22T20:21:14.431Z,2.20
2022-10-22T20:23:16.417Z,3.63
2022-10-22T20:25:18.360Z,7.97
2022-10-22T20:27:20.024Z,2.40
2022-10-22T20:29:21.678Z,2.47
2022-10-22T20:31:26.927Z,5.13
2022-10-22T20:33:28.687Z,2.42
2022-10-22T20:35:30.275Z,2.22
2022-10-22T20:37:32.427Z,2.20
2022-10-22T20:39:34.050Z,4.35
2022-10-22T20:41:37.706Z,2.05
2022-10-22T20:43:39.643Z,1.92
2022-10-22T20:45:41.236Z,5.63
2022-10-22T20:47:51.402Z,1.92
2022-10-22T20:49:59.887Z,1.85
2022-10-22T20:52:02.036Z,2.85
2022-10-22T20:54:04.610Z,2.72
2022-10-22T20:56:06.951Z,4.13
2022-10-22T20:58:08.600Z,1.58
2022-10-22T21:00:10.757Z,3.92
2022-10-22T21:02:12.768Z,2.20
2022-10-22T21:04:15.299Z,1.55
2022-10-22T21:06:17.402Z,2.63
2022-10-22T21:08:19.007Z,1.60
2022-10-22T21:10:20.611Z,2.85
2022-10-22T21:12:22.195Z,2.65
2022-10-22T21:14:23.770Z,2.38
2022-10-22T21:16:25.397Z,2.67
2022-10-22T21:18:27.052Z,2.67
2022-10-22T21:20:28.637Z,3.63
2022-10-22T21:22:30.220Z,2.05
2022-10-22T21:24:31.883Z,4.57
2022-10-22T21:26:40.521Z,3.60
2022-10-22T21:28:42.120Z,1.70
2022-10-22T21:30:47.047Z,2.28
2022-10-22T21:32:48.745Z,1.52
2022-10-22T21:34:50.327Z,1.23
2022-10-22T21:36:52.788Z,1.73
2022-10-22T21:38:54.729Z,1.92
2022-10-22T21:40:56.342Z,3.45
2022-10-22T21:42:57.956Z,2.22
2022-10-22T21:44:59.624Z,1.50
2022-10-22T21:47:01.750Z,4.70
2022-10-22T21:49:04.503Z,1.77
2022-10-22T21:51:08.644Z,2.45
2022-10-22T21:53:11.980Z,3.83
2022-10-22T21:55:13.603Z,2.35
2022-10-22T21:57:15.244Z,2.70
2022-10-22T21:59:16.829Z,1.60
2022-10-22T22:01:18.839Z,1.83
2022-10-22T22:03:20.448Z,2.05
2022-10-22T22:05:22.055Z,1.77
2022-10-22T22:07:23.719Z,1.60
2022-10-22T22:09:25.402Z,1.60
2022-10-22T22:11:28.055Z,1.52
2022-10-22T22:13:29.943Z,1.85
2022-10-22T22:15:31.727Z,2.15
2022-10-22T22:17:33.589Z,1.50
2022-10-22T22:19:35.284Z,1.40
2022-10-22T22:21:41.887Z,3.10
2022-10-22T22:23:45.794Z,1.92
2022-10-22T22:25:47.384Z,1.90
2022-10-22T22:27:49.059Z,1.70
2022-10-22T22:29:50.692Z,2.67
2022-10-22T22:31:52.310Z,4.82
2022-10-22T22:34:06.153Z,1.50
2022-10-22T22:36:08.229Z,1.40
2022-10-22T22:38:09.895Z,3.90
2022-10-22T22:40:11.916Z,2.10
2022-10-22T22:42:13.510Z,2.28
2022-10-22T22:44:15.840Z,3.80
2022-10-22T22:46:17.586Z,2.42
2022-10-22T22:48:19.153Z,3.25
2022-10-22T22:50:20.792Z,3.00
2022-10-22T22:52:22.524Z,2.20
2022-10-22T22:54:24.168Z,1.55
2022-10-22T22:56:28.183Z,4.63
2022-10-22T22:58:29.883Z,1.35
2022-10-22T23:00:31.538Z,2.63
2022-10-22T23:02:33.245Z,1.95
2022-10-22T23:04:34.905Z,2.42
2022-10-22T23:06:37.674Z,1.65
2022-10-22T23:08:40.187Z,2.78
2022-10-22T23:10:41.807Z,1.52
2022-10-22T23:12:43.749Z,3.55
2022-10-22T23:14:45.596Z,5.47
2022-10-22T23:16:49.782Z,2.63
2022-10-22T23:18:53.920Z,2.65
2022-10-22T23:20:55.534Z,1.63
2022-10-22T23:22:57.133Z,2.58
2022-10-22T23:24:58.919Z,1.60
2022-10-22T23:27:03.019Z,2.28
2022-10-22T23:29:36.319Z,1.45
2022-10-22T23:31:38.207Z,2.08
2022-10-22T23:33:39.830Z,1.20
2022-10-22T23:35:42.024Z,1.85
2022-10-22T23:37:43.770Z,2.28
2022-10-22T23:39:45.528Z,1.73
2022-10-22T23:41:47.519Z,2.22
2022-10-22T23:43:50.598Z,1.83
2022-10-22T23:45:52.766Z,2.58
2022-10-22T23:47:54.448Z,1.35
2022-10-22T23:49:56.048Z,2.28
2022-10-22T23:51:57.627Z,1.35
2022-10-22T23:54:02.440Z,1.50
2022-10-22T23:56:10.057Z,1.88
2022-10-22T23:58:12.259Z,1.25
